Time;durP1;ratioP1;P1;durP2;ratioP2;P2;SDS_P1;SDS_P2;PMS_P1;PMS_P2;Temp;Humidity;BMP_temperature;BMP_pressure;BME280_temperature;BME280_humidity;BME280_pressure;Samples;Min_cycle;Max_cycle;Signal;HPM_P1;HPM_P2
2022/06/19 00:01:23;;;;;;;2.88;1.60;;;;;;;23.99;42.03;101327.59;4832435;29;20120;-85
2022/06/19 00:03:54;;;;;;;3.20;1.60;;;;;;;24.00;42.20;101334.59;4851103;29;20038;-87
2022/06/19 00:06:20;;;;;;;3.40;1.42;;;;;;;24.01;42.19;101340.69;4877701;29;20030;-87
2022/06/19 00:08:48;;;;;;;4.13;1.63;;;;;;;24.03;42.31;101352.03;4879032;29;20050;-87
2022/06/19 00:11:15;;;;;;;2.65;1.40;;;;;;;24.03;42.04;101373.06;4857710;29;20033;-87
2022/06/19 00:13:41;;;;;;;3.05;1.30;;;;;;;24.01;42.30;101396.75;4865409;29;20021;-87
2022/06/19 00:16:06;;;;;;;2.47;1.20;;;;;;;24.00;42.18;101415.22;4863187;29;20044;-86
2022/06/19 00:18:32;;;;;;;3.67;1.65;;;;;;;23.98;42.28;101428.41;4847081;29;20061;-87
2022/06/19 00:20:57;;;;;;;3.40;1.48;;;;;;;23.96;42.34;101469.63;4846975;29;20037;-89
2022/06/19 00:23:23;;;;;;;3.50;1.33;;;;;;;23.95;42.33;101504.72;4846950;29;20400;-86
2022/06/19 00:25:48;;;;;;;4.07;1.20;;;;;;;23.96;41.91;101511.69;4831438;29;20049;-86
2022/06/19 00:28:14;;;;;;;3.50;1.30;;;;;;;23.95;42.10;101493.34;4846711;29;20076;-88
2022/06/19 00:30:39;;;;;;;3.78;1.50;;;;;;;23.92;42.09;101469.75;4846750;29;20192;-84
2022/06/19 00:33:05;;;;;;;3.17;1.40;;;;;;;23.93;41.82;101447.81;4846629;29;20502;-86
2022/06/19 00:35:31;;;;;;;3.88;1.60;;;;;;;23.94;42.07;101420.63;4859458;29;20018;-85
2022/06/19 00:37:57;;;;;;;4.63;1.70;;;;;;;23.96;42.15;101417.06;4848903;29;20038;-85
2022/06/19 00:40:26;;;;;;;3.15;1.33;;;;;;;23.97;42.07;101416.16;4846404;29;20481;-87
2022/06/19 00:42:51;;;;;;;4.00;1.40;;;;;;;23.98;42.12;101394.22;4862908;29;20388;-87
2022/06/19 00:45:35;;;;;;;2.40;1.10;;;;;;;23.99;42.23;101359.13;4846382;29;20055;-86
2022/06/19 00:48:09;;;;;;;4.40;1.40;;;;;;;24.00;42.16;101352.13;4861531;29;20048;-86
2022/06/19 00:50:36;;;;;;;2.70;1.23;;;;;;;24.01;41.89;101353.84;4861401;29;20037;-86
2022/06/19 00:53:06;;;;;;;4.00;1.30;;;;;;;24.01;41.93;101372.25;4861451;29;20116;-86
2022/06/19 00:55:36;;;;;;;3.08;1.35;;;;;;;24.01;42.19;101377.50;4861241;29;20045;-86
2022/06/19 00:58:10;;;;;;;3.95;1.52;;;;;;;24.00;41.82;101397.69;4861451;29;20108;-87
2022/06/19 01:00:37;;;;;;;3.20;1.30;;;;;;;23.99;41.90;101416.09;4862771;29;20037;-86
2022/06/19 01:03:10;;;;;;;4.13;1.52;;;;;;;23.97;41.70;101424.03;4831059;29;20116;-88
2022/06/19 01:05:38;;;;;;;5.20;1.58;;;;;;;23.95;41.95;101428.50;4861215;29;20492;-86
2022/06/19 01:08:04;;;;;;;3.78;1.40;;;;;;;23.95;42.00;101427.59;4861103;29;20094;-87
2022/06/19 01:10:36;;;;;;;3.05;1.35;;;;;;;23.93;41.64;101417.16;4861001;29;20048;-85
2022/06/19 01:13:02;;;;;;;3.63;1.47;;;;;;;23.91;41.82;101424.22;4861100;29;20040;-88
2022/06/19 01:15:27;;;;;;;3.38;1.60;;;;;;;23.92;41.91;101418.03;4847788;29;20034;-85
2022/06/19 01:17:57;;;;;;;4.53;1.30;;;;;;;23.93;41.92;101408.38;4858874;29;20059;-86
2022/06/19 01:20:23;;;;;;;3.15;1.30;;;;;;;23.93;41.50;101397.88;4861471;29;20034;-88
2022/06/19 01:23:26;;;;;;;3.75;1.17;;;;;;;23.93;41.64;101379.47;4831254;29;20041;-85
2022/06/19 01:25:52;;;;;;;3.88;1.40;;;;;;;23.94;41.70;101382.06;4861072;29;20089;-85
2022/06/19 01:31:21;;;;;;;3.33;1.40;;;;;;;23.94;42.06;101387.31;4862841;29;20089;-85
2022/06/19 01:33:51;;;;;;;2.95;1.30;;;;;;;23.95;41.80;101372.41;4861350;29;20025;-85
2022/06/19 01:36:20;;;;;;;3.45;1.10;;;;;;;23.96;41.31;101364.50;4861235;29;20044;-87
2022/06/19 01:38:49;;;;;;;4.25;1.30;;;;;;;23.97;41.50;101337.28;4861087;29;20503;-87
2022/06/19 01:41:21;;;;;;;4.57;1.10;;;;;;;23.99;41.76;101340.72;4845839;29;20034;-87
2022/06/19 01:43:47;;;;;;;4.93;1.60;;;;;;;23.99;41.39;101330.22;4860843;29;20477;-86
2022/06/19 01:46:15;;;;;;;3.75;1.35;;;;;;;23.98;41.66;101299.59;4845354;29;20278;-86
2022/06/19 01:48:41;;;;;;;4.80;1.70;;;;;;;24.00;41.40;101297.78;4861233;29;20022;-85
2022/06/19 01:51:07;;;;;;;4.45;1.20;;;;;;;23.99;41.70;101296.03;4861210;29;20032;-86
2022/06/19 01:53:45;;;;;;;2.67;1.13;;;;;;;24.01;41.71;101309.16;4846378;29;20174;-85
2022/06/19 01:56:12;;;;;;;4.32;1.48;;;;;;;24.02;41.69;101385.34;4881026;29;20036;-87
2022/06/19 01:58:44;;;;;;;4.75;1.42;;;;;;;23.99;41.77;101445.88;4865204;29;20028;-85
2022/06/19 02:01:10;;;;;;;3.45;1.27;;;;;;;23.96;41.45;101503.81;4864378;29;20068;-86
2022/06/19 02:03:54;;;;;;;4.60;1.50;;;;;;;23.95;41.47;101553.78;4864526;29;20025;-85
2022/06/19 02:06:25;;;;;;;4.95;1.48;;;;;;;23.92;41.13;101498.69;4864334;29;20084;-86
2022/06/19 02:08:51;;;;;;;3.17;1.13;;;;;;;23.91;41.07;101337.47;4864385;29;20120;-87
2022/06/19 02:11:16;;;;;;;3.97;1.30;;;;;;;23.90;41.28;101185.91;4864326;29;20029;-85
2022/06/19 02:13:43;;;;;;;5.50;1.50;;;;;;;23.96;40.98;101184.88;4890339;29;20036;-86
2022/06/19 02:16:13;;;;;;;3.78;1.30;;;;;;;23.97;41.09;101226.03;4868073;29;20115;-86
2022/06/19 02:18:41;;;;;;;4.90;1.33;;;;;;;23.97;41.58;101252.31;4885092;29;20092;-87
2022/06/19 02:21:11;;;;;;;4.18;1.40;;;;;;;23.97;41.32;101218.13;4869845;29;20470;-87
2022/06/19 02:23:38;;;;;;;3.75;1.20;;;;;;;23.97;41.48;101244.41;4849788;29;20033;-85
2022/06/19 02:26:05;;;;;;;4.32;1.50;;;;;;;23.97;41.64;101316.25;4833393;29;20044;-87
2022/06/19 02:28:35;;;;;;;3.33;1.20;;;;;;;23.99;41.29;101435.38;4864232;29;20107;-86
2022/06/19 02:31:01;;;;;;;4.43;1.25;;;;;;;23.95;41.56;101451.28;4864290;29;20049;-85
2022/06/19 02:33:30;;;;;;;3.30;1.27;;;;;;;23.95;41.56;101454.78;4848891;29;20060;-86
2022/06/19 02:35:56;;;;;;;3.80;1.20;;;;;;;23.97;41.06;101368.81;4880478;29;20480;-85
2022/06/19 02:38:22;;;;;;;4.05;1.40;;;;;;;23.97;41.13;101239.16;4869814;29;20017;-85
2022/06/19 02:41:16;;;;;;;6.05;1.55;;;;;;;23.97;41.10;101205.84;4880995;29;20070;-87
2022/06/19 02:43:42;;;;;;;3.65;1.30;;;;;;;23.98;41.35;101194.44;4867397;29;20047;-85
2022/06/19 02:46:07;;;;;;;2.33;1.10;;;;;;;23.97;41.34;101157.69;4851787;29;20507;-87
2022/06/19 02:48:34;;;;;;;4.95;1.40;;;;;;;23.97;41.39;101089.34;4836258;29;20029;-85
2022/06/19 02:51:03;;;;;;;3.22;1.20;;;;;;;23.97;41.31;101089.34;4867097;29;20551;-88
2022/06/19 02:53:29;;;;;;;5.03;1.42;;;;;;;23.97;41.45;101069.16;4866464;29;20480;-86
2022/06/19 02:55:55;;;;;;;2.38;0.90;;;;;;;23.99;41.16;101109.41;4883894;29;20043;-87
2022/06/19 02:58:21;;;;;;;2.70;1.10;;;;;;;23.99;41.55;101090.16;4851700;29;20120;-86
2022/06/19 03:00:48;;;;;;;2.88;1.20;;;;;;;23.99;41.35;101077.00;4851288;29;20085;-86
2022/06/19 03:03:27;;;;;;;5.93;1.70;;;;;;;23.98;41.42;101073.53;4866781;29;20025;-86
2022/06/19 03:05:53;;;;;;;3.67;1.27;;;;;;;23.99;41.15;101083.09;4866609;29;20116;-86
2022/06/19 03:08:18;;;;;;;5.90;1.20;;;;;;;24.00;41.63;101126.06;4851396;29;20124;-86
2022/06/19 03:10:44;;;;;;;6.90;1.10;;;;;;;24.00;41.68;101128.69;4851186;29;20052;-85
2022/06/19 03:13:09;;;;;;;4.53;1.40;;;;;;;23.98;41.42;101139.22;4851373;29;20040;-87
2022/06/19 03:15:34;;;;;;;4.03;1.30;;;;;;;23.99;41.51;101142.72;4851387;29;20025;-86
2022/06/19 03:18:00;;;;;;;3.83;1.20;;;;;;;23.98;41.67;101143.63;4851035;29;20075;-86
2022/06/19 03:20:26;;;;;;;3.20;1.27;;;;;;;23.97;41.77;101148.00;4846454;29;20044;-85
2022/06/19 03:22:53;;;;;;;6.07;1.50;;;;;;;23.98;41.64;101147.13;4858666;29;20047;-86
2022/06/19 03:25:19;;;;;;;2.60;1.15;;;;;;;23.97;41.64;101150.63;4851015;29;20025;-85
2022/06/19 03:27:45;;;;;;;5.57;1.35;;;;;;;23.98;41.78;101152.38;4851038;29;20056;-86
2022/06/19 03:30:12;;;;;;;3.15;1.27;;;;;;;23.98;41.57;101141.00;4882836;29;20033;-85
2022/06/19 03:32:38;;;;;;;3.00;1.20;;;;;;;23.98;41.94;101164.66;4851101;29;20053;-88
2022/06/19 03:35:04;;;;;;;3.75;1.27;;;;;;;23.97;41.93;101171.66;4835488;29;20103;-86
2022/06/19 03:37:29;;;;;;;4.88;1.02;;;;;;;23.97;41.72;101179.56;4850515;29;20037;-89
2022/06/19 03:39:55;;;;;;;5.15;1.50;;;;;;;23.97;41.46;101197.97;4835319;29;20488;-86
2022/06/19 03:42:20;;;;;;;3.70;1.20;;;;;;;23.98;41.93;101214.63;4851224;29;20032;-88
2022/06/19 03:44:46;;;;;;;3.92;1.10;;;;;;;23.96;41.75;101212.03;4839195;29;20040;-87
2022/06/19 03:47:18;;;;;;;3.38;1.20;;;;;;;23.97;41.78;101205.00;4853017;29;20037;-87
2022/06/19 03:49:43;;;;;;;3.63;1.30;;;;;;;23.97;41.63;101186.59;4883177;29;20057;-87
2022/06/19 03:52:09;;;;;;;5.47;1.27;;;;;;;23.96;41.64;101146.31;4835497;29;20033;-86
2022/06/19 03:54:34;;;;;;;2.90;1.27;;;;;;;23.96;41.52;101153.34;4835127;29;20049;-87
2022/06/19 03:56:59;;;;;;;3.03;1.23;;;;;;;23.95;42.01;101136.72;4835662;29;20037;-86
2022/06/19 03:59:25;;;;;;;2.88;1.10;;;;;;;23.94;41.96;101120.97;4852911;29;20124;-87
2022/06/19 04:01:57;;;;;;;3.40;1.20;;;;;;;23.95;41.98;101125.31;4860185;29;20058;-89
2022/06/19 04:04:22;;;;;;;4.20;1.33;;;;;;;23.95;41.94;101149.88;4867275;29;20044;-87
2022/06/19 04:06:50;;;;;;;3.63;1.35;;;;;;;23.95;42.06;101141.97;4866598;29;20040;-87
2022/06/19 04:09:18;;;;;;;3.55;1.20;;;;;;;23.95;41.89;101123.56;4851643;29;20029;-87
2022/06/19 04:11:44;;;;;;;4.38;1.40;;;;;;;23.95;41.72;101131.47;4851487;29;20037;-87
2022/06/19 04:14:11;;;;;;;2.60;1.15;;;;;;;23.95;42.03;101139.34;4866209;29;20148;-86
2022/06/19 04:16:36;;;;;;;3.13;1.35;;;;;;;23.96;42.01;101166.47;4835829;29;20189;-88
2022/06/19 04:19:06;;;;;;;2.05;0.93;;;;;;;23.96;42.85;101177.84;4867376;29;20500;-90
2022/06/19 04:21:35;;;;;;;2.70;1.08;;;;;;;24.00;41.88;101176.00;4883929;29;20017;-88
2022/06/19 04:24:05;;;;;;;3.38;1.70;;;;;;;23.98;42.12;101162.91;4885951;29;20029;-86
2022/06/19 04:26:35;;;;;;;2.97;1.00;;;;;;;23.96;42.36;101148.94;4886123;29;20020;-87
2022/06/19 04:29:00;;;;;;;2.28;1.27;;;;;;;23.95;42.30;101155.13;4870628;29;20021;-87
2022/06/19 04:31:27;;;;;;;3.72;1.17;;;;;;;23.97;42.16;101169.03;4866305;29;20051;-83
2022/06/19 04:33:52;;;;;;;6.63;1.30;;;;;;;23.96;42.14;101169.13;4850158;29;20135;-86
2022/06/19 04:36:20;;;;;;;4.18;1.27;;;;;;;23.95;41.95;101170.88;4850905;29;20124;-86
2022/06/19 04:38:49;;;;;;;3.42;1.20;;;;;;;23.94;42.17;101170.94;4865664;29;20029;-86
2022/06/19 04:41:17;;;;;;;3.35;1.45;;;;;;;23.94;42.16;101170.94;4866624;29;20061;-86
2022/06/19 04:43:42;;;;;;;7.43;1.42;;;;;;;23.95;41.86;101180.50;4884079;29;20056;-87
2022/06/19 04:46:08;;;;;;;3.10;1.27;;;;;;;23.94;41.78;101184.06;4867151;29;20065;-88
2022/06/19 04:48:35;;;;;;;3.90;1.50;;;;;;;23.94;41.88;101197.22;4867251;29;20056;-90
2022/06/19 04:51:01;;;;;;;3.72;1.25;;;;;;;23.93;42.29;101201.63;4866564;29;20056;-90
2022/06/19 04:53:27;;;;;;;4.47;1.35;;;;;;;23.93;42.03;101212.13;4851690;29;20044;-90
2022/06/19 04:55:53;;;;;;;3.00;1.20;;;;;;;23.91;42.10;101211.31;4866538;29;20041;-90
2022/06/19 04:58:22;;;;;;;2.72;1.15;;;;;;;23.90;42.17;101211.34;4866890;29;20380;-91
2022/06/19 05:00:52;;;;;;;4.07;1.30;;;;;;;23.88;42.41;101224.53;4865500;29;20476;-89
2022/06/19 05:03:19;;;;;;;3.25;1.27;;;;;;;23.87;42.06;101235.13;4866267;29;20037;-94
2022/06/19 05:05:45;;;;;;;2.22;1.20;;;;;;;23.85;42.23;101237.78;4851296;29;20029;-89
2022/06/19 05:08:10;;;;;;;3.25;1.30;;;;;;;23.85;42.29;101235.16;4866381;29;20480;-89
2022/06/19 05:10:36;;;;;;;3.60;1.45;;;;;;;23.84;42.05;101237.81;4850966;29;20124;-90
2022/06/19 05:13:05;;;;;;;2.90;1.20;;;;;;;23.81;42.15;101217.75;4866290;29;20025;-89
2022/06/19 05:15:32;;;;;;;3.63;1.30;;;;;;;23.79;42.24;101212.53;4851399;29;20029;-90
2022/06/19 05:17:57;;;;;;;3.70;1.30;;;;;;;23.81;42.27;101223.00;4866236;29;20047;-90
2022/06/19 05:20:23;;;;;;;3.70;1.50;;;;;;;23.81;42.04;101215.13;4865954;29;20029;-91
2022/06/19 05:22:49;;;;;;;4.18;1.40;;;;;;;23.78;41.87;101205.56;4867833;29;20391;-90
2022/06/19 05:25:14;;;;;;;5.10;1.55;;;;;;;23.80;41.86;101231.78;4879044;29;20094;-92
2022/06/19 05:27:43;;;;;;;6.75;1.80;;;;;;;23.78;42.20;101246.75;4835688;29;20472;-89
2022/06/19 05:30:12;;;;;;;4.30;1.30;;;;;;;23.78;41.71;101259.91;4866000;29;20073;-90
2022/06/19 05:32:38;;;;;;;3.78;1.42;;;;;;;23.76;42.02;101262.56;4867169;29;20511;-91
2022/06/19 05:35:03;;;;;;;4.18;1.50;;;;;;;23.77;41.88;101255.53;4851078;29;20037;-91
2022/06/19 05:37:29;;;;;;;5.00;1.70;;;;;;;23.76;41.55;101261.69;4867091;29;20040;-92
2022/06/19 05:39:54;;;;;;;4.72;1.60;;;;;;;23.75;41.82;101266.06;4851348;29;20033;-90
2022/06/19 05:42:20;;;;;;;4.28;1.65;;;;;;;23.73;41.84;101267.84;4835836;29;20057;-90
2022/06/19 05:44:46;;;;;;;6.07;1.67;;;;;;;23.74;41.59;101258.22;4865858;29;20025;-90
2022/06/19 05:47:12;;;;;;;5.60;1.80;;;;;;;23.73;41.33;101252.09;4850587;29;20120;-91
2022/06/19 05:49:37;;;;;;;4.20;1.48;;;;;;;23.73;41.27;101253.84;4865920;29;20037;-91
2022/06/19 05:52:12;;;;;;;5.93;1.95;;;;;;;23.71;41.31;101243.38;4866256;29;20055;-91
2022/06/19 05:54:38;;;;;;;5.13;1.48;;;;;;;23.72;41.51;101244.25;4865351;29;20045;-91
2022/06/19 05:57:04;;;;;;;6.82;1.65;;;;;;;23.69;41.43;101249.59;4865933;29;20134;-89
2022/06/19 05:59:29;;;;;;;5.65;1.73;;;;;;;23.72;41.42;101258.25;4865175;29;20056;-90
2022/06/19 06:01:55;;;;;;;3.55;1.55;;;;;;;23.74;41.42;101269.59;4834801;29;20033;-93
2022/06/19 06:04:20;;;;;;;6.15;1.70;;;;;;;23.74;41.31;101271.38;4865720;29;20384;-91
2022/06/19 06:06:45;;;;;;;5.28;1.70;;;;;;;23.72;41.62;101266.13;4880817;29;20096;-90
2022/06/19 06:09:14;;;;;;;5.22;1.70;;;;;;;23.73;41.13;101272.25;4851230;29;20033;-91
2022/06/19 06:11:39;;;;;;;5.97;1.65;;;;;;;23.74;41.27;101290.59;4867074;29;20035;-91
2022/06/19 06:14:05;;;;;;;6.05;2.00;;;;;;;23.76;40.98;101311.63;4837974;29;20127;-89
2022/06/19 06:16:30;;;;;;;4.82;1.70;;;;;;;23.76;40.91;101320.38;4838377;29;20032;-88
2022/06/19 06:18:55;;;;;;;5.68;1.70;;;;;;;23.77;41.06;101311.56;4852615;29;20048;-83
2022/06/19 06:21:23;;;;;;;5.60;1.73;;;;;;;23.83;40.89;101325.47;4852092;29;20041;-86
2022/06/19 06:23:49;;;;;;;5.15;1.67;;;;;;;23.87;40.98;101340.25;4852186;29;20029;-86
2022/06/19 06:26:17;;;;;;;5.60;1.60;;;;;;;23.87;41.00;101354.25;4867277;29;20076;-87
2022/06/19 06:28:45;;;;;;;7.45;1.85;;;;;;;23.89;41.43;101359.44;4868541;29;20021;-87
2022/06/19 06:31:13;;;;;;;6.15;1.80;;;;;;;23.89;41.01;101355.06;4881586;29;20035;-87
2022/06/19 06:33:39;;;;;;;5.03;1.63;;;;;;;23.89;41.36;101349.81;4884767;29;20093;-87
2022/06/19 06:36:04;;;;;;;5.97;1.92;;;;;;;23.90;41.56;101351.50;4848704;29;20136;-88
2022/06/19 06:38:30;;;;;;;6.88;1.70;;;;;;;23.90;41.07;101363.78;4854141;29;20041;-87
2022/06/19 06:40:55;;;;;;;6.65;1.80;;;;;;;23.91;41.27;101373.41;4852181;29;20089;-88
2022/06/19 06:43:21;;;;;;;5.57;1.80;;;;;;;23.91;41.32;101399.69;4836991;29;20119;-86
2022/06/19 06:45:48;;;;;;;4.93;1.80;;;;;;;23.91;41.38;101402.31;4867405;29;20025;-87
2022/06/19 06:48:14;;;;;;;4.55;1.38;;;;;;;23.92;41.12;101407.53;4864998;29;20037;-86
2022/06/19 06:50:40;;;;;;;4.95;1.52;;;;;;;23.94;41.02;101418.00;4868686;29;20124;-88
2022/06/19 06:53:06;;;;;;;5.00;1.63;;;;;;;23.94;40.98;101421.50;4867786;29;20071;-87
2022/06/19 06:55:31;;;;;;;4.18;1.70;;;;;;;23.95;41.42;101425.88;4866955;29;20456;-86
2022/06/19 06:57:57;;;;;;;5.65;1.92;;;;;;;23.95;41.07;101427.59;4851556;29;20029;-86
2022/06/19 07:00:24;;;;;;;5.40;1.73;;;;;;;23.95;41.10;101441.63;4851720;29;20364;-89
2022/06/19 07:02:50;;;;;;;6.03;1.60;;;;;;;23.95;41.39;101441.63;4867058;29;20028;-87
2022/06/19 07:05:16;;;;;;;3.72;1.33;;;;;;;23.96;41.32;101440.72;4866812;29;20476;-88
2022/06/19 07:07:41;;;;;;;4.28;1.55;;;;;;;23.96;40.83;101445.97;4836538;29;20044;-87
2022/06/19 07:10:08;;;;;;;4.97;1.60;;;;;;;23.97;41.45;101445.06;4836293;29;20029;-87
2022/06/19 07:12:33;;;;;;;5.78;1.63;;;;;;;23.98;41.35;101446.81;4883241;29;20025;-86
2022/06/19 07:14:59;;;;;;;4.55;1.42;;;;;;;23.98;41.15;101441.53;4872533;29;20035;-85
2022/06/19 07:17:24;;;;;;;4.57;1.70;;;;;;;23.98;41.41;101446.81;4856475;29;20029;-86
2022/06/19 07:19:50;;;;;;;3.85;1.50;;;;;;;23.99;41.15;101438.00;4873007;29;20049;-85
2022/06/19 07:22:17;;;;;;;4.13;1.48;;;;;;;23.99;41.54;101439.78;4870523;29;20033;-87
2022/06/19 07:24:44;;;;;;;3.65;1.50;;;;;;;23.97;41.16;101438.94;4870094;29;20013;-85
2022/06/19 07:27:10;;;;;;;3.42;1.48;;;;;;;23.95;41.49;101452.16;4882366;29;20040;-82
2022/06/19 07:29:41;;;;;;;4.78;1.70;;;;;;;23.95;41.08;101464.41;4887551;29;20045;-84
2022/06/19 07:32:07;;;;;;;3.45;1.33;;;;;;;23.93;41.45;101468.84;4895371;29;20033;-86
2022/06/19 07:34:32;;;;;;;3.83;1.52;;;;;;;23.93;41.25;101474.09;4846157;29;20464;-85
2022/06/19 07:36:57;;;;;;;3.30;1.40;;;;;;;23.93;41.50;101467.09;4865366;29;20037;-85
2022/06/19 07:39:23;;;;;;;3.92;1.02;;;;;;;23.94;41.37;101476.69;4854423;29;20033;-85
2022/06/19 07:41:48;;;;;;;3.80;1.38;;;;;;;23.95;41.46;101462.66;4851303;29;20108;-86
2022/06/19 07:44:14;;;;;;;4.57;1.50;;;;;;;23.96;41.06;101461.75;4866783;29;20447;-84
2022/06/19 07:50:09;;;;;;;3.60;1.45;;;;;;;23.95;41.47;101465.31;4850778;29;20033;-83
2022/06/19 07:52:09;;;;;;;3.35;1.40;;;;;;;23.96;41.44;101442.50;4883139;29;20048;-86
2022/06/19 07:54:34;;;;;;;3.90;1.13;;;;;;;23.96;41.40;101445.13;4850101;29;20057;-85
2022/06/19 07:57:00;;;;;;;4.38;1.50;;;;;;;23.93;41.40;101446.06;4835259;29;20033;-87
2022/06/19 07:59:25;;;;;;;3.97;1.40;;;;;;;23.93;41.23;101434.66;4850389;29;20131;-87
2022/06/19 08:01:51;;;;;;;3.65;1.40;;;;;;;23.93;41.61;101424.16;4835609;29;20037;-81
2022/06/19 08:04:16;;;;;;;5.88;1.63;;;;;;;23.81;41.86;101423.59;4866727;29;20029;-82
2022/06/19 08:06:42;;;;;;;8.07;1.80;;;;;;;23.69;41.48;101417.75;4850441;29;20123;-84
2022/06/19 08:09:07;;;;;;;7.43;2.00;;;;;;;23.60;41.42;101409.22;4850627;29;20037;-80
2022/06/19 08:11:32;;;;;;;12.52;1.90;;;;;;;23.66;41.73;101409.97;4896294;29;20384;-85
2022/06/19 08:13:58;;;;;;;14.05;2.42;;;;;;;23.68;41.54;101402.91;4835255;29;20472;-84
2022/06/19 08:16:23;;;;;;;16.05;2.42;;;;;;;23.67;41.65;101395.91;4867205;29;20021;-83
2022/06/19 08:18:48;;;;;;;7.82;2.00;;;;;;;23.76;41.50;101372.06;4834439;29;20040;-81
2022/06/19 08:21:14;;;;;;;6.15;1.52;;;;;;;23.73;41.58;101372.09;4849760;29;20657;-83
2022/06/19 08:23:39;;;;;;;7.57;1.45;;;;;;;23.72;42.16;101371.25;4834754;29;20400;-85
2022/06/19 08:26:04;;;;;;;7.30;1.80;;;;;;;23.54;41.93;101374.34;4834411;29;20083;-82
2022/06/19 08:30:58;;;;;;;7.80;2.20;;;;;;;23.14;41.47;101368.34;4865871;29;20029;-84
2022/06/19 08:33:23;;;;;;;7.15;2.03;;;;;;;23.00;41.64;101359.97;4834663;29;20044;-84
2022/06/19 08:35:53;;;;;;;8.07;2.25;;;;;;;22.93;41.25;101343.47;4849259;29;20037;-83
2022/06/19 08:38:21;;;;;;;9.35;2.22;;;;;;;22.83;40.87;101349.81;4865488;29;20124;-84
2022/06/19 08:40:55;;;;;;;9.13;2.35;;;;;;;22.78;41.10;101362.19;4867947;29;20134;-84
2022/06/19 08:43:39;;;;;;;7.53;2.05;;;;;;;22.77;40.93;101376.19;4872084;29;20039;-82
2022/06/19 08:46:26;;;;;;;8.02;1.90;;;;;;;22.87;40.41;101371.63;4870520;29;20384;-82
2022/06/19 08:49:24;;;;;;;7.40;2.05;;;;;;;22.86;40.21;101362.00;4866794;29;20029;-83
2022/06/19 08:52:04;;;;;;;6.88;1.83;;;;;;;22.73;40.43;101359.69;4842512;29;20035;-83
2022/06/19 08:54:30;;;;;;;7.32;2.13;;;;;;;22.82;40.10;101355.09;4870239;29;20548;-83
2022/06/19 08:57:19;;;;;;;7.03;1.90;;;;;;;22.86;40.25;101357.59;4865418;29;20140;-82
2022/06/19 08:59:50;;;;;;;7.30;1.95;;;;;;;22.88;39.82;101349.72;4864987;29;20384;-82
2022/06/19 09:02:31;;;;;;;7.82;1.70;;;;;;;22.74;39.91;101350.91;4865117;29;20425;-82
2022/06/19 09:19:42;;;;;;;3.83;1.45;;;;;;;23.15;39.92;101364.84;4960291;23;20116;-90
2022/06/19 09:22:17;;;;;;;3.65;1.30;;;;;;;23.90;39.71;101358.53;4867914;29;20021;-85
2022/06/19 09:25:21;;;;;;;5.90;1.27;;;;;;;25.05;37.79;101345.41;4865190;29;20017;-88
2022/06/19 09:28:08;;;;;;;2.53;1.20;;;;;;;24.68;37.86;101343.09;4818870;29;20537;-90
2022/06/19 09:31:07;;;;;;;4.55;1.20;;;;;;;24.42;38.73;101342.09;4865133;29;20035;-91
2022/06/19 09:33:42;;;;;;;3.78;1.30;;;;;;;25.15;36.62;101340.72;4876944;29;20026;-91
2022/06/19 09:36:13;;;;;;;2.25;1.00;;;;;;;24.98;37.55;101325.47;4868855;29;20036;-77
2022/06/19 09:38:47;;;;;;;3.38;1.20;;;;;;;24.97;37.51;101325.50;4863667;29;20064;-88
2022/06/19 09:41:31;;;;;;;2.38;0.98;;;;;;;24.89;37.68;101335.44;4863535;29;20092;-82
2022/06/19 09:44:05;;;;;;;3.40;1.23;;;;;;;24.80;37.78;101326.94;4880093;29;20104;-82
2022/06/19 09:46:39;;;;;;;4.45;1.20;;;;;;;24.74;38.13;101313.13;4864496;29;20040;-84
2022/06/19 09:49:04;;;;;;;;;;;;;;;24.78;38.52;101320.88;4867984;29;20089;-83
2022/06/19 09:51:36;;;;;;;4.10;1.23;;;;;;;24.91;38.35;101323.06;4867203;29;20290;-83
2022/06/19 09:54:05;;;;;;;3.92;1.20;;;;;;;24.77;38.76;101326.16;4867476;29;20077;-81
2022/06/19 09:56:33;;;;;;;5.05;1.35;;;;;;;24.61;38.70;101325.81;4883787;29;20033;-80
2022/06/19 09:59:09;;;;;;;2.58;0.95;;;;;;;24.46;38.80;101336.75;4867043;29;20025;-80
2022/06/19 10:01:36;;;;;;;3.25;1.10;;;;;;;24.31;38.97;101332.81;4883938;29;20391;-86
2022/06/19 10:04:19;;;;;;;4.53;1.20;;;;;;;24.28;38.39;101328.53;4851969;29;20025;-84
2022/06/19 10:06:51;;;;;;;8.88;1.33;;;;;;;24.30;38.18;101325.81;4867015;29;20089;-85
2022/06/19 10:10:18;;;;;;;3.10;1.08;;;;;;;24.23;38.56;101338.28;4867010;29;20041;-84
2022/06/19 10:12:48;;;;;;;5.93;1.80;;;;;;;24.19;38.48;101347.19;4767825;30;20110;-86
2022/06/19 10:15:19;;;;;;;3.63;1.52;;;;;;;24.14;39.16;101343.84;4803342;29;20029;-85
2022/06/19 10:17:57;;;;;;;5.05;1.90;;;;;;;24.11;39.28;101338.69;4847403;29;20047;-86
2022/06/19 10:20:49;;;;;;;4.15;1.52;;;;;;;24.10;39.01;101339.56;4867881;29;20037;-85
2022/06/19 10:23:54;;;;;;;5.55;1.50;;;;;;;24.10;39.08;101340.41;4867648;29;20027;-86
2022/06/19 10:26:37;;;;;;;5.20;1.83;;;;;;;24.12;39.02;101337.75;4883815;29;20028;-84
2022/06/19 10:29:21;;;;;;;3.70;1.65;;;;;;;24.12;38.72;101337.75;4867067;29;20044;-84
2022/06/19 10:32:04;;;;;;;4.40;1.50;;;;;;;24.09;39.41;101345.75;4884273;29;20032;-85
2022/06/19 10:34:51;;;;;;;7.18;1.75;;;;;;;24.13;39.20;101363.16;4884239;29;20166;-85
2022/06/19 10:37:43;;;;;;;6.00;1.83;;;;;;;24.12;39.18;101371.94;4867109;29;20392;-84
2022/06/19 10:40:27;;;;;;;5.32;1.40;;;;;;;24.10;38.89;101385.13;4876566;29;20033;-83
2022/06/19 10:42:55;;;;;;;3.58;1.60;;;;;;;24.09;38.77;101372.03;4868936;29;20029;-85
2022/06/19 10:45:37;;;;;;;5.65;1.42;;;;;;;24.06;38.93;101354.56;4868114;29;20025;-85
2022/06/19 10:48:08;;;;;;;4.82;1.65;;;;;;;24.05;39.11;101342.34;4884355;29;20039;-85
2022/06/19 10:50:49;;;;;;;3.88;1.48;;;;;;;24.03;38.95;101345.00;4866729;29;20080;-84
2022/06/19 10:53:35;;;;;;;4.18;1.67;;;;;;;24.06;39.14;101345.81;4867157;29;20040;-84
2022/06/19 10:56:29;;;;;;;3.53;1.40;;;;;;;24.00;39.03;101360.00;4873414;29;20404;-85
2022/06/19 10:58:55;;;;;;;4.15;1.60;;;;;;;23.98;38.67;101352.16;4870169;29;20040;-83
2022/06/19 11:04:12;;;;;;;4.18;1.40;;;;;;;24.03;38.45;101354.66;4883263;29;20032;-83
2022/06/19 11:07:04;;;;;;;8.70;1.88;;;;;;;23.99;38.22;101374.91;4866237;29;20025;-91
2022/06/19 11:09:41;;;;;;;5.13;1.40;;;;;;;23.97;38.27;101384.59;4866039;29;20028;-88
2022/06/19 11:12:45;;;;;;;10.88;2.08;;;;;;;23.97;41.90;101381.97;4866537;29;20033;-83
2022/06/19 11:15:24;;;;;;;9.68;2.05;;;;;;;23.94;46.25;101360.19;4882752;29;20075;-84
2022/06/19 11:18:06;;;;;;;11.00;2.03;;;;;;;23.80;49.65;101365.81;4865929;29;20052;-82
2022/06/19 11:20:32;;;;;;;4.95;1.90;;;;;;;23.65;51.25;101356.56;4866900;29;20029;-80
2022/06/19 11:23:05;;;;;;;5.35;1.90;;;;;;;23.61;51.89;101350.50;4866699;29;20028;-81
2022/06/19 11:25:38;;;;;;;;;;;;;;;23.55;50.35;101357.69;4882798;29;20056;-81
2022/06/19 11:28:16;;;;;;;7.85;2.10;;;;;;;23.44;53.16;101365.84;4865485;29;19912;-83
2022/06/19 11:30:48;;;;;;;7.18;1.80;;;;;;;23.30;53.39;101365.34;4865512;29;20028;-79
2022/06/19 11:33:32;;;;;;;6.53;2.00;;;;;;;22.98;51.49;101354.69;4882365;29;20033;-83
2022/06/19 11:36:08;;;;;;;8.20;2.25;;;;;;;22.90;49.79;101361.88;4865909;29;20025;-85
2022/06/19 11:38:55;;;;;;;9.75;2.20;;;;;;;22.73;48.41;101364.03;4897793;29;20032;-88
2022/06/19 11:41:20;;;;;;;8.35;2.30;;;;;;;22.67;46.22;101357.19;4867103;29;20115;-84
2022/06/19 11:44:02;;;;;;;10.63;2.67;;;;;;;22.66;51.14;101349.34;4865975;29;20063;-85
2022/06/19 11:46:27;;;;;;;9.75;2.60;;;;;;;22.61;47.98;101356.47;4837947;29;20053;-84
2022/06/19 11:48:54;;;;;;;12.63;2.65;;;;;;;22.62;53.31;101387.88;4866854;29;20068;-84
2022/06/19 11:51:32;;;;;;;9.65;2.42;;;;;;;22.57;45.54;101429.97;4866888;29;20033;-83
2022/06/19 11:54:23;;;;;;;6.93;2.45;;;;;;;22.45;47.18;101445.97;4852532;29;20452;-83
2022/06/19 11:56:52;;;;;;;10.35;3.00;;;;;;;22.40;44.12;101460.91;4869223;29;20036;-82
2022/06/19 12:09:43;;;;;;;12.95;2.75;;;;;;;22.34;45.82;101490.75;4887140;29;20048;-83
2022/06/19 12:12:10;;;;;;;15.00;3.13;;;;;;;22.34;50.70;101505.59;4886761;29;20097;-84
2022/06/19 12:21:41;;;;;;;13.48;2.83;;;;;;;22.31;49.67;101516.16;4890940;29;20056;-84